createdAt,value
2022-11-20T00:01:45.342Z,7.17
2022-11-20T00:04:32.920Z,6.87
2022-11-20T00:07:20.943Z,7.67
2022-11-20T00:10:09.883Z,7.30
2022-11-20T00:13:00.529Z,5.97
2022-11-20T00:15:48.021Z,5.47
2022-11-20T00:18:37.143Z,5.47
2022-11-20T00:21:27.007Z,5.00
2022-11-20T00:24:14.855Z,5.17
2022-11-20T00:27:02.490Z,4.50
2022-11-20T00:29:51.522Z,4.90
2022-11-20T00:32:39.935Z,4.43
2022-11-20T00:35:27.504Z,4.73
2022-11-20T00:38:15.122Z,4.10
2022-11-20T00:41:04.688Z,4.77
2022-11-20T00:43:54.512Z,4.57
2022-11-20T00:46:44.114Z,5.57
2022-11-20T00:49:31.747Z,6.10
2022-11-20T00:52:19.714Z,4.80
2022-11-20T00:55:08.773Z,4.67
2022-11-20T00:57:56.450Z,4.77
2022-11-20T01:00:44.480Z,5.10
2022-11-20T01:03:35.530Z,4.10
2022-11-20T01:06:25.901Z,3.57
2022-11-20T01:09:16.094Z,3.37
2022-11-20T01:12:03.565Z,3.90
2022-11-20T01:14:51.427Z,4.30
2022-11-20T01:17:39.083Z,3.53
2022-11-20T01:20:28.405Z,3.70
2022-11-20T01:23:16.207Z,3.20
2022-11-20T01:26:05.822Z,3.07
2022-11-20T01:28:54.009Z,2.33
2022-11-20T01:31:41.716Z,2.40
2022-11-20T01:34:29.272Z,2.00
2022-11-20T01:37:18.243Z,2.70
2022-11-20T01:40:07.782Z,2.30
2022-11-20T01:43:23.135Z,2.37
2022-11-20T01:46:18.904Z,2.10
2022-11-20T01:49:13.647Z,2.10
2022-11-20T01:52:06.942Z,2.20
2022-11-20T01:55:01.482Z,2.10
2022-11-20T01:57:51.054Z,2.07
2022-11-20T02:00:38.891Z,2.37
2022-11-20T02:03:27.077Z,2.03
2022-11-20T02:06:21.869Z,2.00
2022-11-20T02:09:09.600Z,2.00
2022-11-20T02:12:00.089Z,2.27
2022-11-20T02:14:47.026Z,2.00
2022-11-20T02:17:34.860Z,2.30
2022-11-20T02:20:22.616Z,2.43
2022-11-20T02:23:16.333Z,2.37
2022-11-20T02:26:10.613Z,2.50
2022-11-20T02:28:59.305Z,2.87
2022-11-20T02:31:47.822Z,2.77
2022-11-20T02:34:35.567Z,3.40
2022-11-20T02:37:24.040Z,3.50
2022-11-20T02:40:13.357Z,3.20
2022-11-20T02:43:02.705Z,2.87
2022-11-20T02:45:50.435Z,3.10
2022-11-20T02:48:38.552Z,3.73
2022-11-20T02:51:26.647Z,3.37
2022-11-20T02:54:14.298Z,3.30
2022-11-20T02:57:02.089Z,2.70
2022-11-20T02:59:51.345Z,3.07
2022-11-20T03:02:39.518Z,3.60
2022-11-20T03:05:27.249Z,3.33
2022-11-20T03:08:15.308Z,3.03
2022-11-20T03:11:07.185Z,2.77
2022-11-20T03:13:54.784Z,2.90
2022-11-20T03:16:44.169Z,2.87
2022-11-20T03:19:31.947Z,3.23
2022-11-20T03:22:19.856Z,3.20
2022-11-20T03:25:08.748Z,3.20
2022-11-20T03:27:57.093Z,2.97
2022-11-20T03:30:44.764Z,2.60
2022-11-20T03:33:33.893Z,3.03
2022-11-20T03:36:23.294Z,3.10
2022-11-20T03:39:11.254Z,2.90
2022-11-20T03:41:58.883Z,2.70
2022-11-20T03:44:46.898Z,3.43
2022-11-20T03:47:34.851Z,3.10
2022-11-20T03:50:23.923Z,3.43
2022-11-20T03:53:11.980Z,3.30
2022-11-20T03:55:59.963Z,3.40
2022-11-20T03:58:47.576Z,4.10
2022-11-20T04:01:38.005Z,3.60
2022-11-20T04:04:25.621Z,4.47
2022-11-20T04:07:14.855Z,4.20
2022-11-20T04:10:02.727Z,4.63
2022-11-20T04:12:50.380Z,4.17
2022-11-20T04:15:38.620Z,4.10
2022-11-20T04:18:26.359Z,5.23
2022-11-20T04:21:14.960Z,5.60
2022-11-20T04:24:04.946Z,4.90
2022-11-20T04:26:52.477Z,5.10
2022-11-20T04:29:40.031Z,5.67
2022-11-20T04:32:27.884Z,4.60
2022-11-20T04:35:15.707Z,5.00
2022-11-20T04:38:03.441Z,5.70
2022-11-20T04:40:52.749Z,4.73
2022-11-20T04:43:40.372Z,5.43
2022-11-20T04:46:29.618Z,5.33
2022-11-20T04:49:17.405Z,6.77
2022-11-20T04:52:05.445Z,6.03
2022-11-20T04:54:54.488Z,6.17
2022-11-20T04:57:43.603Z,6.00
2022-11-20T05:00:31.446Z,6.20
2022-11-20T05:03:19.332Z,5.93
2022-11-20T05:06:08.815Z,7.00
2022-11-20T05:08:56.766Z,6.07
2022-11-20T05:11:47.099Z,6.13
2022-11-20T05:14:39.491Z,6.07
2022-11-20T05:17:27.377Z,6.43
2022-11-20T05:20:15.400Z,6.27
2022-11-20T05:23:02.980Z,5.70
2022-11-20T05:25:58.708Z,4.93
2022-11-20T05:28:47.972Z,6.63
2022-11-20T05:31:38.280Z,6.80
2022-11-20T05:34:25.740Z,6.93
2022-11-20T05:37:13.589Z,7.07
2022-11-20T05:40:01.658Z,7.03
2022-11-20T05:42:49.562Z,5.93
2022-11-20T05:45:37.305Z,7.37
2022-11-20T05:48:27.307Z,6.80
2022-11-20T05:51:17.722Z,6.13
2022-11-20T05:54:05.583Z,6.47
2022-11-20T05:56:53.207Z,6.90
2022-11-20T05:59:41.051Z,6.60
2022-11-20T06:02:29.032Z,6.47
2022-11-20T06:05:18.587Z,6.90
2022-11-20T06:08:06.624Z,6.40
2022-11-20T06:10:54.640Z,6.27
2022-11-20T06:13:43.872Z,6.70
2022-11-20T06:16:31.584Z,5.73
2022-11-20T06:19:19.800Z,6.07
2022-11-20T06:22:09.253Z,6.10
2022-11-20T06:24:56.888Z,6.90
2022-11-20T06:27:44.899Z,7.00
2022-11-20T06:30:32.926Z,6.87
2022-11-20T06:33:20.925Z,8.23
2022-11-20T06:36:11.020Z,6.93
2022-11-20T06:39:00.569Z,5.97
2022-11-20T06:41:48.671Z,7.03
2022-11-20T06:44:36.227Z,6.77
2022-11-20T06:47:24.312Z,7.83
2022-11-20T06:50:12.464Z,7.70
2022-11-20T06:53:04.738Z,7.13
2022-11-20T06:55:54.603Z,8.10
2022-11-20T06:58:42.623Z,6.30
2022-11-20T07:01:30.093Z,6.67
2022-11-20T07:03:59.380Z,7.37
2022-11-20T07:06:28.749Z,7.53
2022-11-20T07:08:58.289Z,6.67
2022-11-20T07:11:29.146Z,8.00
2022-11-20T07:13:59.781Z,9.40
2022-11-20T07:16:29.117Z,8.70
2022-11-20T07:18:58.616Z,7.23
2022-11-20T07:21:27.992Z,8.23
2022-11-20T07:23:57.389Z,7.23
2022-11-20T07:26:28.050Z,8.73
2022-11-20T07:28:57.455Z,7.10
2022-11-20T07:31:26.771Z,8.70
2022-11-20T07:33:56.216Z,7.17
2022-11-20T07:36:25.588Z,9.03
2022-11-20T07:38:55.463Z,9.70
2022-11-20T07:41:24.834Z,7.83
2022-11-20T07:43:55.691Z,7.13
2022-11-20T07:46:25.026Z,7.57
2022-11-20T07:48:54.418Z,7.17
2022-11-20T07:51:24.044Z,6.93
2022-11-20T07:53:53.857Z,8.33
2022-11-20T07:56:23.228Z,9.63
2022-11-20T07:58:54.255Z,9.83
2022-11-20T08:01:23.699Z,8.60
2022-11-20T08:03:53.139Z,9.03
2022-11-20T08:06:22.582Z,7.37
2022-11-20T08:08:52.012Z,6.83
2022-11-20T08:11:38.886Z,8.37
2022-11-20T08:14:16.444Z,7.17
2022-11-20T08:16:49.353Z,7.17
2022-11-20T08:19:20.912Z,8.10
2022-11-20T08:21:50.637Z,8.00
2022-11-20T08:24:20.072Z,7.60
2022-11-20T08:26:49.478Z,7.90
2022-11-20T08:29:20.627Z,7.93
2022-11-20T08:31:50.397Z,8.73
2022-11-20T08:34:19.848Z,10.07
2022-11-20T08:36:49.227Z,10.03
2022-11-20T08:39:18.834Z,10.50
2022-11-20T08:41:48.407Z,10.70
2022-11-20T08:44:19.170Z,12.23
2022-11-20T08:46:48.667Z,11.30
2022-11-20T08:49:19.010Z,9.60
2022-11-20T08:51:52.752Z,10.13
2022-11-20T08:54:23.056Z,10.40
2022-11-20T08:56:52.537Z,10.03
2022-11-20T08:59:43.760Z,9.63
2022-11-20T09:02:13.143Z,9.37
2022-11-20T09:04:42.518Z,8.13
2022-11-20T09:07:12.020Z,8.43
2022-11-20T09:09:41.475Z,8.77
2022-11-20T09:12:10.956Z,9.33
2022-11-20T09:14:41.725Z,8.30
2022-11-20T09:17:14.543Z,8.03
2022-11-20T09:19:44.602Z,7.67
2022-11-20T09:22:14.042Z,9.40
2022-11-20T09:24:43.857Z,9.73
2022-11-20T09:27:13.221Z,9.30
2022-11-20T09:29:43.989Z,8.77
2022-11-20T09:32:13.444Z,10.17
2022-11-20T09:34:42.859Z,7.57
2022-11-20T09:37:12.287Z,8.87
2022-11-20T09:39:41.863Z,9.33
2022-11-20T09:42:35.424Z,9.53
2022-11-20T09:45:22.740Z,9.57
2022-11-20T09:48:21.042Z,8.70
2022-11-20T09:51:06.965Z,9.40
2022-11-20T09:53:48.126Z,8.40
2022-11-20T09:56:22.515Z,8.43
2022-11-20T09:58:55.093Z,8.73
2022-11-20T10:01:34.308Z,8.77
2022-11-20T10:04:08.706Z,8.87
2022-11-20T10:06:49.311Z,9.70
2022-11-20T10:09:32.029Z,9.47
2022-11-20T10:12:19.480Z,7.83
2022-11-20T10:15:05.528Z,9.30
2022-11-20T10:18:15.809Z,8.97
2022-11-20T10:20:55.572Z,7.83
2022-11-20T10:24:06.738Z,9.07
2022-11-20T10:26:45.662Z,11.57
2022-11-20T10:29:18.223Z,10.80
2022-11-20T10:31:53.683Z,9.10
2022-11-20T10:34:28.849Z,11.20
2022-11-20T10:37:04.816Z,10.10
2022-11-20T10:39:43.029Z,8.27
2022-11-20T10:42:19.938Z,11.03
2022-11-20T10:45:07.787Z,11.43
2022-11-20T10:47:37.844Z,10.13
2022-11-20T10:50:21.904Z,9.50
2022-11-20T10:53:05.252Z,9.43
2022-11-20T10:55:46.626Z,10.23
2022-11-20T10:58:24.739Z,9.77
2022-11-20T11:00:54.405Z,10.43
2022-11-20T11:03:29.824Z,10.40
2022-11-20T11:06:11.537Z,8.80
2022-11-20T11:08:42.164Z,7.87
2022-11-20T11:11:24.263Z,9.20
2022-11-20T11:13:54.054Z,10.00
2022-11-20T11:16:26.179Z,10.00
2022-11-20T11:19:07.107Z,9.33
2022-11-20T11:21:42.332Z,7.90
2022-11-20T11:24:41.076Z,7.03
2022-11-20T11:27:18.957Z,6.57
2022-11-20T11:29:49.073Z,6.27
2022-11-20T11:32:22.880Z,6.07
2022-11-20T11:35:03.014Z,8.47
2022-11-20T11:37:37.468Z,7.40
2022-11-20T11:40:26.760Z,7.67
2022-11-20T11:43:01.263Z,6.77
2022-11-20T11:45:30.475Z,7.20
2022-11-20T11:48:03.220Z,7.33
2022-11-20T11:50:32.764Z,5.57
2022-11-20T11:53:15.253Z,5.53
2022-11-20T11:55:48.635Z,5.77
2022-11-20T11:58:41.032Z,6.17
2022-11-20T12:01:25.377Z,7.90
2022-11-20T12:04:04.859Z,12.03
2022-11-20T12:06:37.106Z,9.70
2022-11-20T12:09:11.756Z,9.13
2022-11-20T12:11:50.329Z,9.23
2022-11-20T12:14:26.058Z,9.90
2022-11-20T12:16:57.882Z,8.57
2022-11-20T12:19:34.353Z,7.53
2022-11-20T12:22:19.455Z,7.60
2022-11-20T12:24:57.931Z,7.83
2022-11-20T12:27:49.515Z,7.87
2022-11-20T12:30:21.250Z,7.00
2022-11-20T12:33:50.775Z,7.80
2022-11-20T12:36:34.414Z,7.37
2022-11-20T12:39:36.738Z,7.43
2022-11-20T12:42:58.721Z,8.47
2022-11-20T12:45:56.825Z,7.80
2022-11-20T12:49:05.114Z,7.47
2022-11-20T12:52:12.000Z,9.47
2022-11-20T12:55:12.300Z,7.67
2022-11-20T12:57:54.602Z,6.63
2022-11-20T13:00:25.874Z,7.67
2022-11-20T13:03:41.568Z,7.73
2022-11-20T13:06:19.058Z,6.83
2022-11-20T13:08:54.740Z,8.67
2022-11-20T13:11:32.812Z,6.10
2022-11-20T13:14:26.696Z,6.90
2022-11-20T13:17:06.034Z,6.50
2022-11-20T13:19:36.387Z,6.33
2022-11-20T13:22:05.844Z,6.90
2022-11-20T13:24:35.664Z,8.97
2022-11-20T13:27:22.421Z,7.00
2022-11-20T13:30:19.228Z,6.00
2022-11-20T13:32:55.638Z,7.17
2022-11-20T13:35:32.926Z,7.07
2022-11-20T13:38:08.665Z,6.70
2022-11-20T13:40:41.056Z,5.80
2022-11-20T13:43:22.291Z,6.97
2022-11-20T13:46:02.234Z,7.77
2022-11-20T13:48:36.331Z,7.57
2022-11-20T13:51:17.530Z,6.87
2022-11-20T13:54:16.205Z,7.90
2022-11-20T13:57:01.302Z,8.63
2022-11-20T13:59:52.036Z,6.30
2022-11-20T14:02:25.519Z,9.60
2022-11-20T14:04:59.647Z,8.90
2022-11-20T14:07:38.360Z,8.37
2022-11-20T14:10:28.474Z,8.07
2022-11-20T14:13:01.069Z,7.70
2022-11-20T14:15:34.080Z,7.97
2022-11-20T14:18:16.121Z,7.57
2022-11-20T14:20:46.319Z,8.57
2022-11-20T14:23:30.061Z,11.73
2022-11-20T14:26:00.476Z,12.17
2022-11-20T14:28:32.362Z,9.00
2022-11-20T14:31:01.956Z,8.57
2022-11-20T14:33:41.058Z,8.77
2022-11-20T14:36:21.595Z,10.10
2022-11-20T14:38:51.569Z,10.17
2022-11-20T14:55:31.309Z,91.63
2022-11-20T14:58:02.598Z,44.57
2022-11-20T15:00:33.134Z,22.33
2022-11-20T15:21:28.605Z,4.70
2022-11-20T15:24:59.274Z,4.17
2022-11-20T15:27:49.088Z,4.30
2022-11-20T15:34:24.219Z,3.80
2022-11-20T15:54:34.405Z,5.33
2022-11-20T15:57:03.961Z,5.37
2022-11-20T16:00:28.255Z,4.30
2022-11-20T16:17:50.649Z,1.37
2022-11-20T16:20:32.795Z,2.20
2022-11-20T16:23:04.005Z,2.60
2022-11-20T16:25:33.640Z,1.60
2022-11-20T16:28:03.140Z,2.73
2022-11-20T16:30:34.458Z,3.33
2022-11-20T16:33:05.800Z,2.83
2022-11-20T16:35:35.276Z,2.40
2022-11-20T16:38:06.480Z,3.00
2022-11-20T16:40:37.946Z,2.87
2022-11-20T16:43:14.611Z,3.03
2022-11-20T16:45:45.878Z,3.10
2022-11-20T16:48:18.752Z,2.40
2022-11-20T16:50:51.277Z,2.97
2022-11-20T16:53:23.745Z,4.53
2022-11-20T16:55:53.191Z,4.20
2022-11-20T16:58:22.673Z,2.60
2022-11-20T17:00:52.227Z,1.87
2022-11-20T17:03:21.686Z,2.07
2022-11-20T17:05:51.475Z,2.20
2022-11-20T17:08:22.503Z,1.63
2022-11-20T17:10:51.939Z,2.00
2022-11-20T17:13:21.572Z,1.60
2022-11-20T17:15:53.039Z,2.87
2022-11-20T17:18:22.581Z,3.80
2022-11-20T17:20:54.136Z,4.17
2022-11-20T17:23:25.257Z,2.93
2022-11-20T17:25:54.709Z,4.13
2022-11-20T17:28:24.305Z,2.57
2022-11-20T17:30:53.822Z,2.70
2022-11-20T17:33:23.359Z,2.30
2022-11-20T17:35:52.791Z,2.27
2022-11-20T17:38:22.347Z,1.47
2022-11-20T17:40:53.450Z,3.10
2022-11-20T17:43:23.004Z,2.10
2022-11-20T17:45:52.538Z,2.83
2022-11-20T17:48:22.232Z,1.70
2022-11-20T17:50:51.801Z,1.50
2022-11-20T17:53:21.424Z,1.77
2022-11-20T17:56:18.565Z,2.03
2022-11-20T17:58:48.149Z,3.13
2022-11-20T18:01:18.787Z,1.50
2022-11-20T18:03:49.083Z,1.77
2022-11-20T18:06:21.976Z,1.30
2022-11-20T18:08:52.304Z,1.63
2022-11-20T18:11:27.026Z,1.77
2022-11-20T18:14:19.490Z,0.80
2022-11-20T18:16:51.384Z,1.80
2022-11-20T18:19:23.319Z,2.20
2022-11-20T18:21:53.406Z,0.93
2022-11-20T18:24:23.448Z,1.17
2022-11-20T18:26:54.766Z,2.33
2022-11-20T18:29:24.381Z,1.10
2022-11-20T18:31:54.018Z,1.40
2022-11-20T18:34:23.925Z,1.53
2022-11-20T18:36:53.852Z,1.80
2022-11-20T18:39:24.220Z,1.63
2022-11-20T18:42:12.396Z,2.10
2022-11-20T18:44:54.694Z,2.30
2022-11-20T18:47:26.218Z,2.17
2022-11-20T18:49:58.232Z,1.20
2022-11-20T18:52:29.558Z,1.17
2022-11-20T18:54:59.141Z,1.20
2022-11-20T18:57:31.417Z,1.13
2022-11-20T19:00:07.895Z,2.23
2022-11-20T19:02:42.510Z,1.33
2022-11-20T19:05:14.350Z,1.77
2022-11-20T19:07:44.414Z,1.20
2022-11-20T19:10:13.780Z,1.30
2022-11-20T19:12:44.832Z,1.60
2022-11-20T19:15:14.324Z,1.40
2022-11-20T19:17:43.753Z,1.27
2022-11-20T19:20:13.584Z,0.87
2022-11-20T19:22:43.148Z,1.13
2022-11-20T19:25:12.495Z,1.10
2022-11-20T19:27:43.472Z,0.80
2022-11-20T19:30:14.331Z,0.97
2022-11-20T19:32:43.738Z,1.67
2022-11-20T19:35:13.403Z,1.63
2022-11-20T19:37:42.837Z,1.30
2022-11-20T19:40:12.966Z,1.10
2022-11-20T19:42:43.820Z,0.97
2022-11-20T19:45:13.359Z,1.00
2022-11-20T19:50:33.690Z,2.50
2022-11-20T19:53:03.301Z,1.40
2022-11-20T19:55:32.809Z,1.30
2022-11-20T19:58:04.390Z,1.47
2022-11-20T20:00:34.003Z,2.17
2022-11-20T20:03:06.524Z,1.03
2022-11-20T20:05:38.253Z,1.13
2022-11-20T20:08:07.897Z,0.80
2022-11-20T20:10:37.749Z,2.07
2022-11-20T20:13:10.493Z,1.43
2022-11-20T20:15:42.151Z,1.13
2022-11-20T20:18:11.667Z,1.47
2022-11-20T20:20:41.230Z,1.10
2022-11-20T20:23:11.084Z,2.20
2022-11-20T20:25:40.687Z,1.23
2022-11-20T20:28:11.576Z,0.80
2022-11-20T20:30:40.993Z,1.97
2022-11-20T20:33:10.466Z,1.17
2022-11-20T20:35:42.479Z,0.80
2022-11-20T20:38:12.071Z,2.33
2022-11-20T20:40:48.185Z,1.10
2022-11-20T20:43:19.130Z,1.30
2022-11-20T20:45:49.673Z,0.70
2022-11-20T20:48:21.518Z,1.57
2022-11-20T20:50:58.243Z,0.70
2022-11-20T20:53:28.678Z,0.83
2022-11-20T20:56:00.592Z,1.03
2022-11-20T20:58:32.432Z,1.03
2022-11-20T21:01:03.923Z,0.77
2022-11-20T21:03:51.602Z,1.30
2022-11-20T21:06:39.694Z,1.30
2022-11-20T21:09:27.317Z,1.73
2022-11-20T21:12:15.097Z,0.70
2022-11-20T21:15:05.088Z,1.10
2022-11-20T21:17:52.929Z,1.30
2022-11-20T21:20:58.795Z,0.67
2022-11-20T21:23:48.135Z,0.53
2022-11-20T21:26:36.092Z,0.57
2022-11-20T21:29:25.489Z,0.67
2022-11-20T21:32:14.571Z,0.70
2022-11-20T21:35:02.514Z,0.60
2022-11-20T21:37:50.391Z,1.40
2022-11-20T21:40:37.981Z,1.20
2022-11-20T21:43:25.932Z,1.23
2022-11-20T21:46:15.994Z,1.43
2022-11-20T21:49:05.744Z,0.90
2022-11-20T21:51:53.808Z,1.17
2022-11-20T21:54:41.304Z,1.10
2022-11-20T21:57:29.390Z,1.13
2022-11-20T22:00:17.993Z,0.73
2022-11-20T22:03:06.313Z,1.20
2022-11-20T22:05:59.861Z,0.97
2022-11-20T22:08:48.815Z,1.13
2022-11-20T22:11:36.438Z,1.07
2022-11-20T22:14:24.920Z,0.80
2022-11-20T22:17:15.708Z,1.37
2022-11-20T22:20:03.616Z,0.83
2022-11-20T22:22:52.613Z,1.30
2022-11-20T22:25:40.158Z,1.67
2022-11-20T22:28:28.002Z,1.90
2022-11-20T22:31:15.820Z,2.60
2022-11-20T22:34:04.140Z,2.17
2022-11-20T22:36:51.825Z,0.80
2022-11-20T22:39:41.334Z,1.43
2022-11-20T22:42:29.358Z,1.77
2022-11-20T22:45:18.089Z,1.07
2022-11-20T22:48:07.046Z,1.97
2022-11-20T22:50:54.916Z,2.63
2022-11-20T22:53:43.677Z,1.73
2022-11-20T22:56:33.830Z,0.70
2022-11-20T22:59:21.822Z,2.57
2022-11-20T23:02:09.310Z,1.73
2022-11-20T23:04:57.107Z,1.70
2022-11-20T23:07:45.223Z,1.27
2022-11-20T23:10:33.236Z,1.80
2022-11-20T23:13:22.321Z,2.27
2022-11-20T23:16:13.184Z,1.03
2022-11-20T23:19:03.160Z,1.53
2022-11-20T23:21:50.830Z,2.67
2022-11-20T23:24:38.503Z,1.90
2022-11-20T23:27:28.401Z,1.67
2022-11-20T23:30:18.317Z,1.77
2022-11-20T23:33:06.483Z,2.53
2022-11-20T23:35:54.681Z,1.57
2022-11-20T23:38:42.905Z,1.23
2022-11-20T23:41:30.701Z,1.83
2022-11-20T23:44:18.312Z,2.23
2022-11-20T23:47:07.689Z,2.17
2022-11-20T23:49:55.709Z,2.07
2022-11-20T23:52:43.287Z,2.40
2022-11-20T23:55:31.097Z,1.70
2022-11-20T23:58:20.068Z,1.00
